sensor_id;sensor_type;location;lat;lon;timestamp;P1;durP1;ratioP1;P2;durP2;ratioP2
69401;SDS011;56589;51.992;5.924;2023-04-19T00:00:43;13.18;;;8.43;;
69401;SDS011;56589;51.992;5.924;2023-04-19T00:03:09;12.15;;;7.60;;
69401;SDS011;56589;51.992;5.924;2023-04-19T00:05:38;11.98;;;7.28;;
69401;SDS011;56589;51.992;5.924;2023-04-19T00:08:04;10.15;;;7.68;;
69401;SDS011;56589;51.992;5.924;2023-04-19T00:10:30;9.50;;;7.20;;
69401;SDS011;56589;51.992;5.924;2023-04-19T00:12:56;9.82;;;7.63;;
69401;SDS011;56589;51.992;5.924;2023-04-19T00:15:22;12.70;;;6.80;;
69401;SDS011;56589;51.992;5.924;2023-04-19T00:17:47;11.57;;;7.75;;
69401;SDS011;56589;51.992;5.924;2023-04-19T00:20:13;12.10;;;7.50;;
69401;SDS011;56589;51.992;5.924;2023-04-19T00:22:42;12.40;;;7.85;;
69401;SDS011;56589;51.992;5.924;2023-04-19T00:25:08;11.77;;;7.63;;
69401;SDS011;56589;51.992;5.924;2023-04-19T00:27:33;13.73;;;8.13;;
69401;SDS011;56589;51.992;5.924;2023-04-19T00:29:59;12.55;;;8.27;;
69401;SDS011;56589;51.992;5.924;2023-04-19T00:32:26;13.35;;;8.15;;
69401;SDS011;56589;51.992;5.924;2023-04-19T00:34:51;12.90;;;7.68;;
69401;SDS011;56589;51.992;5.924;2023-04-19T00:37:17;11.30;;;7.65;;
69401;SDS011;56589;51.992;5.924;2023-04-19T00:39:46;11.55;;;7.70;;
69401;SDS011;56589;51.992;5.924;2023-04-19T00:42:11;10.60;;;7.22;;
69401;SDS011;56589;51.992;5.924;2023-04-19T00:44:37;15.10;;;8.25;;
69401;SDS011;56589;51.992;5.924;2023-04-19T00:47:03;13.27;;;7.88;;
69401;SDS011;56589;51.992;5.924;2023-04-19T00:49:29;14.05;;;8.43;;
69401;SDS011;56589;51.992;5.924;2023-04-19T00:51:55;13.32;;;7.97;;
69401;SDS011;56589;51.992;5.924;2023-04-19T00:54:21;10.45;;;7.20;;
69401;SDS011;56589;51.992;5.924;2023-04-19T00:56:51;12.95;;;8.20;;
69401;SDS011;56589;51.992;5.924;2023-04-19T00:59:17;12.77;;;7.68;;
69401;SDS011;56589;51.992;5.924;2023-04-19T01:01:43;10.90;;;7.50;;
69401;SDS011;56589;51.992;5.924;2023-04-19T01:04:09;10.68;;;7.65;;
69401;SDS011;56589;51.992;5.924;2023-04-19T01:06:35;11.27;;;7.57;;
69401;SDS011;56589;51.992;5.924;2023-04-19T01:09:04;9.93;;;7.38;;
69401;SDS011;56589;51.992;5.924;2023-04-19T01:11:30;11.85;;;7.97;;
69401;SDS011;56589;51.992;5.924;2023-04-19T01:13:58;11.98;;;7.75;;
69401;SDS011;56589;51.992;5.924;2023-04-19T01:16:24;13.68;;;8.00;;
69401;SDS011;56589;51.992;5.924;2023-04-19T01:18:50;12.35;;;7.97;;
69401;SDS011;56589;51.992;5.924;2023-04-19T01:21:16;10.40;;;7.68;;
69401;SDS011;56589;51.992;5.924;2023-04-19T01:23:45;13.63;;;9.10;;
69401;SDS011;56589;51.992;5.924;2023-04-19T01:26:10;16.17;;;8.18;;
69401;SDS011;56589;51.992;5.924;2023-04-19T01:28:36;11.90;;;8.13;;
69401;SDS011;56589;51.992;5.924;2023-04-19T01:31:02;12.60;;;8.30;;
69401;SDS011;56589;51.992;5.924;2023-04-19T01:33:28;10.95;;;7.68;;
69401;SDS011;56589;51.992;5.924;2023-04-19T01:35:54;10.90;;;7.65;;
69401;SDS011;56589;51.992;5.924;2023-04-19T01:38:20;9.75;;;7.43;;
69401;SDS011;56589;51.992;5.924;2023-04-19T01:40:48;10.68;;;8.15;;
69401;SDS011;56589;51.992;5.924;2023-04-19T01:43:14;11.85;;;7.53;;
69401;SDS011;56589;51.992;5.924;2023-04-19T01:45:41;11.48;;;7.38;;
69401;SDS011;56589;51.992;5.924;2023-04-19T01:48:07;8.25;;;6.50;;
69401;SDS011;56589;51.992;5.924;2023-04-19T01:50:33;11.60;;;8.13;;
69401;SDS011;56589;51.992;5.924;2023-04-19T01:52:59;11.55;;;7.60;;
69401;SDS011;56589;51.992;5.924;2023-04-19T01:55:25;12.65;;;7.78;;
69401;SDS011;56589;51.992;5.924;2023-04-19T01:57:53;13.52;;;7.82;;
69401;SDS011;56589;51.992;5.924;2023-04-19T02:00:19;14.43;;;7.68;;
69401;SDS011;56589;51.992;5.924;2023-04-19T02:02:45;12.00;;;7.60;;
69401;SDS011;56589;51.992;5.924;2023-04-19T02:05:11;11.02;;;7.35;;
69401;SDS011;56589;51.992;5.924;2023-04-19T02:07:38;13.32;;;7.57;;
69401;SDS011;56589;51.992;5.924;2023-04-19T02:10:04;10.52;;;6.82;;
69401;SDS011;56589;51.992;5.924;2023-04-19T02:12:33;10.30;;;7.25;;
69401;SDS011;56589;51.992;5.924;2023-04-19T02:15:02;10.43;;;7.57;;
69401;SDS011;56589;51.992;5.924;2023-04-19T02:17:29;12.70;;;7.53;;
69401;SDS011;56589;51.992;5.924;2023-04-19T02:19:55;9.77;;;6.35;;
69401;SDS011;56589;51.992;5.924;2023-04-19T02:22:21;10.52;;;6.80;;
69401;SDS011;56589;51.992;5.924;2023-04-19T02:24:48;11.85;;;7.72;;
69401;SDS011;56589;51.992;5.924;2023-04-19T02:27:15;13.63;;;7.47;;
69401;SDS011;56589;51.992;5.924;2023-04-19T02:29:41;11.63;;;7.70;;
69401;SDS011;56589;51.992;5.924;2023-04-19T02:32:10;10.57;;;6.40;;
69401;SDS011;56589;51.992;5.924;2023-04-19T02:34:36;9.45;;;6.40;;
69401;SDS011;56589;51.992;5.924;2023-04-19T02:37:02;10.38;;;6.63;;
69401;SDS011;56589;51.992;5.924;2023-04-19T02:39:28;11.93;;;6.57;;
69401;SDS011;56589;51.992;5.924;2023-04-19T02:41:54;8.63;;;6.00;;
69401;SDS011;56589;51.992;5.924;2023-04-19T02:44:20;8.15;;;5.45;;
69401;SDS011;56589;51.992;5.924;2023-04-19T02:46:47;9.35;;;6.57;;
69401;SDS011;56589;51.992;5.924;2023-04-19T02:49:16;8.32;;;5.75;;
69401;SDS011;56589;51.992;5.924;2023-04-19T02:51:42;9.95;;;6.45;;
69401;SDS011;56589;51.992;5.924;2023-04-19T02:54:08;10.27;;;6.28;;
69401;SDS011;56589;51.992;5.924;2023-04-19T02:56:35;10.55;;;6.18;;
69401;SDS011;56589;51.992;5.924;2023-04-19T02:59:00;11.18;;;6.65;;
69401;SDS011;56589;51.992;5.924;2023-04-19T03:01:27;10.30;;;6.10;;
69401;SDS011;56589;51.992;5.924;2023-04-19T03:03:53;10.60;;;6.53;;
69401;SDS011;56589;51.992;5.924;2023-04-19T03:06:21;8.52;;;5.68;;
69401;SDS011;56589;51.992;5.924;2023-04-19T03:08:47;8.70;;;5.68;;
69401;SDS011;56589;51.992;5.924;2023-04-19T03:11:14;8.88;;;5.72;;
69401;SDS011;56589;51.992;5.924;2023-04-19T03:13:40;11.23;;;7.60;;
69401;SDS011;56589;51.992;5.924;2023-04-19T03:16:07;10.40;;;5.88;;
69401;SDS011;56589;51.992;5.924;2023-04-19T03:18:33;8.38;;;5.90;;
69401;SDS011;56589;51.992;5.924;2023-04-19T03:20:59;9.40;;;6.13;;
69401;SDS011;56589;51.992;5.924;2023-04-19T03:23:27;9.00;;;5.97;;
69401;SDS011;56589;51.992;5.924;2023-04-19T03:25:54;8.65;;;5.50;;
69401;SDS011;56589;51.992;5.924;2023-04-19T03:28:20;10.65;;;5.47;;
69401;SDS011;56589;51.992;5.924;2023-04-19T03:30:46;7.32;;;5.68;;
69401;SDS011;56589;51.992;5.924;2023-04-19T03:33:11;9.48;;;6.57;;
69401;SDS011;56589;51.992;5.924;2023-04-19T03:35:37;9.45;;;5.65;;
69401;SDS011;56589;51.992;5.924;2023-04-19T03:38:03;8.43;;;5.30;;
69401;SDS011;56589;51.992;5.924;2023-04-19T03:40:32;8.55;;;5.60;;
69401;SDS011;56589;51.992;5.924;2023-04-19T03:42:58;10.00;;;5.85;;
69401;SDS011;56589;51.992;5.924;2023-04-19T03:45:24;7.57;;;5.80;;
69401;SDS011;56589;51.992;5.924;2023-04-19T03:47:50;10.77;;;5.72;;
69401;SDS011;56589;51.992;5.924;2023-04-19T03:50:16;8.45;;;5.80;;
69401;SDS011;56589;51.992;5.924;2023-04-19T03:52:42;8.20;;;5.68;;
69401;SDS011;56589;51.992;5.924;2023-04-19T03:55:08;8.15;;;5.35;;
69401;SDS011;56589;51.992;5.924;2023-04-19T03:57:37;9.02;;;5.57;;
69401;SDS011;56589;51.992;5.924;2023-04-19T04:00:04;8.43;;;5.72;;
69401;SDS011;56589;51.992;5.924;2023-04-19T04:02:31;10.38;;;6.30;;
69401;SDS011;56589;51.992;5.924;2023-04-19T04:04:57;9.60;;;5.15;;
69401;SDS011;56589;51.992;5.924;2023-04-19T04:07:22;7.70;;;5.40;;
69401;SDS011;56589;51.992;5.924;2023-04-19T04:09:48;8.27;;;5.15;;
69401;SDS011;56589;51.992;5.924;2023-04-19T04:12:14;6.85;;;4.97;;
69401;SDS011;56589;51.992;5.924;2023-04-19T04:14:43;7.82;;;5.15;;
69401;SDS011;56589;51.992;5.924;2023-04-19T04:17:09;14.15;;;6.60;;
69401;SDS011;56589;51.992;5.924;2023-04-19T04:19:35;7.13;;;4.97;;
69401;SDS011;56589;51.992;5.924;2023-04-19T04:22:00;7.07;;;4.90;;
69401;SDS011;56589;51.992;5.924;2023-04-19T04:24:26;7.07;;;4.55;;
69401;SDS011;56589;51.992;5.924;2023-04-19T04:26:52;6.35;;;4.80;;
69401;SDS011;56589;51.992;5.924;2023-04-19T04:29:18;11.82;;;5.25;;
69401;SDS011;56589;51.992;5.924;2023-04-19T04:31:46;9.88;;;5.38;;
69401;SDS011;56589;51.992;5.924;2023-04-19T04:34:12;9.02;;;4.63;;
69401;SDS011;56589;51.992;5.924;2023-04-19T04:36:38;7.60;;;4.85;;
69401;SDS011;56589;51.992;5.924;2023-04-19T04:39:03;8.40;;;4.95;;
69401;SDS011;56589;51.992;5.924;2023-04-19T04:41:29;8.18;;;5.07;;
69401;SDS011;56589;51.992;5.924;2023-04-19T04:43:55;8.05;;;4.18;;
69401;SDS011;56589;51.992;5.924;2023-04-19T04:46:21;7.57;;;5.30;;
69401;SDS011;56589;51.992;5.924;2023-04-19T04:48:50;7.80;;;5.05;;
69401;SDS011;56589;51.992;5.924;2023-04-19T04:51:16;8.63;;;5.10;;
69401;SDS011;56589;51.992;5.924;2023-04-19T04:53:41;9.02;;;4.85;;
69401;SDS011;56589;51.992;5.924;2023-04-19T04:56:07;10.55;;;5.90;;
69401;SDS011;56589;51.992;5.924;2023-04-19T04:58:33;8.02;;;4.63;;
69401;SDS011;56589;51.992;5.924;2023-04-19T05:00:59;6.55;;;5.25;;
69401;SDS011;56589;51.992;5.924;2023-04-19T05:03:25;7.57;;;4.75;;
69401;SDS011;56589;51.992;5.924;2023-04-19T05:05:53;9.32;;;5.07;;
69401;SDS011;56589;51.992;5.924;2023-04-19T05:08:19;7.82;;;4.65;;
69401;SDS011;56589;51.992;5.924;2023-04-19T05:10:45;9.07;;;5.68;;
69401;SDS011;56589;51.992;5.924;2023-04-19T05:13:11;7.05;;;4.88;;
69401;SDS011;56589;51.992;5.924;2023-04-19T05:15:36;6.60;;;4.53;;
69401;SDS011;56589;51.992;5.924;2023-04-19T05:18:02;8.48;;;4.30;;
69401;SDS011;56589;51.992;5.924;2023-04-19T05:20:29;8.30;;;5.07;;
69401;SDS011;56589;51.992;5.924;2023-04-19T05:22:59;6.53;;;4.32;;
69401;SDS011;56589;51.992;5.924;2023-04-19T05:25:25;7.03;;;4.75;;
69401;SDS011;56589;51.992;5.924;2023-04-19T05:27:51;6.60;;;4.70;;
69401;SDS011;56589;51.992;5.924;2023-04-19T05:30:17;6.40;;;4.05;;
69401;SDS011;56589;51.992;5.924;2023-04-19T05:32:43;7.32;;;4.70;;
69401;SDS011;56589;51.992;5.924;2023-04-19T05:35:09;6.50;;;4.47;;
69401;SDS011;56589;51.992;5.924;2023-04-19T05:37:35;9.65;;;4.75;;
69401;SDS011;56589;51.992;5.924;2023-04-19T05:40:05;8.65;;;5.00;;
69401;SDS011;56589;51.992;5.924;2023-04-19T05:42:32;6.88;;;4.47;;
69401;SDS011;56589;51.992;5.924;2023-04-19T05:44:58;7.88;;;4.50;;
69401;SDS011;56589;51.992;5.924;2023-04-19T05:47:24;7.22;;;4.40;;
69401;SDS011;56589;51.992;5.924;2023-04-19T05:49:49;8.40;;;4.30;;
69401;SDS011;56589;51.992;5.924;2023-04-19T05:52:15;6.55;;;4.47;;
69401;SDS011;56589;51.992;5.924;2023-04-19T05:54:41;7.40;;;4.60;;
69401;SDS011;56589;51.992;5.924;2023-04-19T05:57:09;6.13;;;4.35;;
69401;SDS011;56589;51.992;5.924;2023-04-19T05:59:35;8.05;;;4.78;;
69401;SDS011;56589;51.992;5.924;2023-04-19T06:02:01;6.88;;;4.38;;
69401;SDS011;56589;51.992;5.924;2023-04-19T06:04:27;7.65;;;4.40;;
69401;SDS011;56589;51.992;5.924;2023-04-19T06:06:53;7.22;;;4.45;;
69401;SDS011;56589;51.992;5.924;2023-04-19T06:09:18;7.63;;;4.22;;
69401;SDS011;56589;51.992;5.924;2023-04-19T06:11:44;7.00;;;4.13;;
69401;SDS011;56589;51.992;5.924;2023-04-19T06:14:13;13.23;;;4.30;;
69401;SDS011;56589;51.992;5.924;2023-04-19T06:16:39;8.07;;;4.28;;
69401;SDS011;56589;51.992;5.924;2023-04-19T06:19:05;6.95;;;3.90;;
69401;SDS011;56589;51.992;5.924;2023-04-19T06:21:30;6.05;;;3.97;;
69401;SDS011;56589;51.992;5.924;2023-04-19T06:23:56;6.50;;;4.07;;
69401;SDS011;56589;51.992;5.924;2023-04-19T06:26:22;8.70;;;3.97;;
69401;SDS011;56589;51.992;5.924;2023-04-19T06:28:48;5.60;;;3.85;;
69401;SDS011;56589;51.992;5.924;2023-04-19T06:31:16;8.43;;;4.20;;
69401;SDS011;56589;51.992;5.924;2023-04-19T06:33:42;5.65;;;3.70;;
69401;SDS011;56589;51.992;5.924;2023-04-19T06:36:08;5.15;;;3.38;;
69401;SDS011;56589;51.992;5.924;2023-04-19T06:38:34;6.50;;;3.80;;
69401;SDS011;56589;51.992;5.924;2023-04-19T06:41:00;5.80;;;3.50;;
69401;SDS011;56589;51.992;5.924;2023-04-19T06:43:26;5.20;;;3.63;;
69401;SDS011;56589;51.992;5.924;2023-04-19T06:45:56;4.85;;;3.42;;
69401;SDS011;56589;51.992;5.924;2023-04-19T06:48:25;6.30;;;3.60;;
69401;SDS011;56589;51.992;5.924;2023-04-19T06:50:51;6.85;;;3.33;;
69401;SDS011;56589;51.992;5.924;2023-04-19T06:53:17;5.30;;;3.72;;
69401;SDS011;56589;51.992;5.924;2023-04-19T06:55:43;6.45;;;3.20;;
69401;SDS011;56589;51.992;5.924;2023-04-19T06:58:09;6.13;;;3.58;;
69401;SDS011;56589;51.992;5.924;2023-04-19T07:00:35;5.35;;;2.90;;
69401;SDS011;56589;51.992;5.924;2023-04-19T07:03:00;3.45;;;2.55;;
69401;SDS011;56589;51.992;5.924;2023-04-19T07:05:29;4.53;;;3.08;;
69401;SDS011;56589;51.992;5.924;2023-04-19T07:07:56;4.35;;;2.63;;
69401;SDS011;56589;51.992;5.924;2023-04-19T07:10:22;4.75;;;2.50;;
69401;SDS011;56589;51.992;5.924;2023-04-19T07:12:48;5.32;;;2.47;;
69401;SDS011;56589;51.992;5.924;2023-04-19T07:15:14;4.80;;;2.65;;
69401;SDS011;56589;51.992;5.924;2023-04-19T07:17:40;7.25;;;3.30;;
69401;SDS011;56589;51.992;5.924;2023-04-19T07:20:06;7.18;;;2.70;;
69401;SDS011;56589;51.992;5.924;2023-04-19T07:22:35;4.68;;;2.63;;
69401;SDS011;56589;51.992;5.924;2023-04-19T07:25:01;3.90;;;2.33;;
69401;SDS011;56589;51.992;5.924;2023-04-19T07:27:27;4.88;;;2.80;;
69401;SDS011;56589;51.992;5.924;2023-04-19T07:29:53;4.90;;;2.70;;
69401;SDS011;56589;51.992;5.924;2023-04-19T07:32:19;3.95;;;2.53;;
69401;SDS011;56589;51.992;5.924;2023-04-19T07:34:45;3.38;;;2.08;;
69401;SDS011;56589;51.992;5.924;2023-04-19T07:37:10;3.30;;;2.05;;
69401;SDS011;56589;51.992;5.924;2023-04-19T07:39:39;3.90;;;2.53;;
69401;SDS011;56589;51.992;5.924;2023-04-19T07:42:05;6.05;;;2.17;;
69401;SDS011;56589;51.992;5.924;2023-04-19T07:44:30;4.78;;;2.55;;
69401;SDS011;56589;51.992;5.924;2023-04-19T07:46:56;9.85;;;2.72;;
69401;SDS011;56589;51.992;5.924;2023-04-19T07:49:22;4.75;;;2.17;;
69401;SDS011;56589;51.992;5.924;2023-04-19T07:51:48;6.10;;;2.35;;
69401;SDS011;56589;51.992;5.924;2023-04-19T07:54:14;4.50;;;1.83;;
69401;SDS011;56589;51.992;5.924;2023-04-19T07:56:42;4.05;;;1.90;;
69401;SDS011;56589;51.992;5.924;2023-04-19T07:59:08;4.68;;;2.30;;
69401;SDS011;56589;51.992;5.924;2023-04-19T08:01:34;4.35;;;2.20;;
69401;SDS011;56589;51.992;5.924;2023-04-19T08:04:00;5.30;;;2.17;;
69401;SDS011;56589;51.992;5.924;2023-04-19T08:06:25;4.40;;;2.10;;
69401;SDS011;56589;51.992;5.924;2023-04-19T08:08:51;3.58;;;1.75;;
69401;SDS011;56589;51.992;5.924;2023-04-19T08:11:17;3.67;;;1.75;;
69401;SDS011;56589;51.992;5.924;2023-04-19T08:13:46;4.18;;;2.30;;
69401;SDS011;56589;51.992;5.924;2023-04-19T08:16:11;2.70;;;1.65;;
69401;SDS011;56589;51.992;5.924;2023-04-19T08:18:37;4.50;;;1.70;;
69401;SDS011;56589;51.992;5.924;2023-04-19T08:21:03;7.40;;;2.70;;
69401;SDS011;56589;51.992;5.924;2023-04-19T08:23:29;5.22;;;1.90;;
69401;SDS011;56589;51.992;5.924;2023-04-19T08:25:55;3.92;;;2.05;;
69401;SDS011;56589;51.992;5.924;2023-04-19T08:28:21;1.98;;;1.35;;
69401;SDS011;56589;51.992;5.924;2023-04-19T08:30:50;2.97;;;1.30;;
69401;SDS011;56589;51.992;5.924;2023-04-19T08:33:15;2.95;;;1.63;;
69401;SDS011;56589;51.992;5.924;2023-04-19T08:35:41;2.22;;;1.20;;
69401;SDS011;56589;51.992;5.924;2023-04-19T08:38:07;4.38;;;1.33;;
69401;SDS011;56589;51.992;5.924;2023-04-19T08:40:33;4.38;;;1.30;;
69401;SDS011;56589;51.992;5.924;2023-04-19T08:43:04;2.67;;;1.35;;
69401;SDS011;56589;51.992;5.924;2023-04-19T08:45:30;1.70;;;1.25;;
69401;SDS011;56589;51.992;5.924;2023-04-19T08:48:00;4.55;;;1.33;;
69401;SDS011;56589;51.992;5.924;2023-04-19T08:50:27;3.28;;;1.00;;
69401;SDS011;56589;51.992;5.924;2023-04-19T08:52:54;1.65;;;0.95;;
69401;SDS011;56589;51.992;5.924;2023-04-19T08:55:22;3.40;;;1.23;;
69401;SDS011;56589;51.992;5.924;2023-04-19T08:57:49;4.85;;;1.00;;
69401;SDS011;56589;51.992;5.924;2023-04-19T09:00:15;3.58;;;1.00;;
69401;SDS011;56589;51.992;5.924;2023-04-19T09:02:43;1.60;;;1.20;;
69401;SDS011;56589;51.992;5.924;2023-04-19T09:05:14;13.88;;;2.40;;
69401;SDS011;56589;51.992;5.924;2023-04-19T09:07:41;2.38;;;1.10;;
69401;SDS011;56589;51.992;5.924;2023-04-19T09:10:08;2.08;;;1.30;;
69401;SDS011;56589;51.992;5.924;2023-04-19T09:12:36;2.50;;;1.10;;
69401;SDS011;56589;51.992;5.924;2023-04-19T09:15:04;3.60;;;1.20;;
69401;SDS011;56589;51.992;5.924;2023-04-19T09:17:32;4.55;;;1.20;;
69401;SDS011;56589;51.992;5.924;2023-04-19T09:19:59;2.20;;;1.00;;
69401;SDS011;56589;51.992;5.924;2023-04-19T09:22:27;3.53;;;1.52;;
69401;SDS011;56589;51.992;5.924;2023-04-19T09:24:53;2.60;;;1.40;;
69401;SDS011;56589;51.992;5.924;2023-04-19T09:27:24;3.65;;;1.40;;
69401;SDS011;56589;51.992;5.924;2023-04-19T09:29:52;6.32;;;1.27;;
69401;SDS011;56589;51.992;5.924;2023-04-19T09:32:18;3.38;;;1.15;;
69401;SDS011;56589;51.992;5.924;2023-04-19T09:34:49;2.85;;;1.30;;
69401;SDS011;56589;51.992;5.924;2023-04-19T09:39:46;1.88;;;1.20;;
69401;SDS011;56589;51.992;5.924;2023-04-19T09:42:12;2.70;;;1.30;;
69401;SDS011;56589;51.992;5.924;2023-04-19T09:44:38;5.05;;;1.30;;
69401;SDS011;56589;51.992;5.924;2023-04-19T09:47:06;3.15;;;1.48;;
69401;SDS011;56589;51.992;5.924;2023-04-19T09:49:46;2.78;;;1.08;;
69401;SDS011;56589;51.992;5.924;2023-04-19T09:52:12;2.58;;;1.20;;
69401;SDS011;56589;51.992;5.924;2023-04-19T09:54:39;2.30;;;1.08;;
69401;SDS011;56589;51.992;5.924;2023-04-19T09:57:09;1.73;;;1.10;;
69401;SDS011;56589;51.992;5.924;2023-04-19T09:59:35;2.08;;;1.42;;
69401;SDS011;56589;51.992;5.924;2023-04-19T10:02:01;1.92;;;1.13;;
69401;SDS011;56589;51.992;5.924;2023-04-19T10:04:29;2.63;;;1.40;;
69401;SDS011;56589;51.992;5.924;2023-04-19T10:06:56;3.65;;;1.38;;
69401;SDS011;56589;51.992;5.924;2023-04-19T10:09:23;3.42;;;1.02;;
69401;SDS011;56589;51.992;5.924;2023-04-19T10:11:49;3.05;;;1.00;;
69401;SDS011;56589;51.992;5.924;2023-04-19T10:14:20;3.65;;;1.10;;
69401;SDS011;56589;51.992;5.924;2023-04-19T10:16:49;2.45;;;0.90;;
69401;SDS011;56589;51.992;5.924;2023-04-19T10:19:15;3.55;;;1.70;;
69401;SDS011;56589;51.992;5.924;2023-04-19T10:21:45;3.63;;;2.08;;
69401;SDS011;56589;51.992;5.924;2023-04-19T10:24:13;3.25;;;1.35;;
69401;SDS011;56589;51.992;5.924;2023-04-19T10:32:25;2.45;;;1.02;;
69401;SDS011;56589;51.992;5.924;2023-04-19T10:34:52;1.58;;;1.17;;
69401;SDS011;56589;51.992;5.924;2023-04-19T10:37:20;2.05;;;1.23;;
69401;SDS011;56589;51.992;5.924;2023-04-19T10:39:49;3.40;;;1.50;;
69401;SDS011;56589;51.992;5.924;2023-04-19T10:42:14;5.47;;;1.73;;
69401;SDS011;56589;51.992;5.924;2023-04-19T10:44:40;2.55;;;1.60;;
69401;SDS011;56589;51.992;5.924;2023-04-19T10:47:09;2.53;;;1.17;;
69401;SDS011;56589;51.992;5.924;2023-04-19T10:49:43;2.90;;;1.55;;
69401;SDS011;56589;51.992;5.924;2023-04-19T10:52:17;6.45;;;1.48;;
69401;SDS011;56589;51.992;5.924;2023-04-19T10:54:54;3.37;;;1.50;;
69401;SDS011;56589;51.992;5.924;2023-04-19T10:57:21;2.47;;;1.65;;
69401;SDS011;56589;51.992;5.924;2023-04-19T10:59:47;3.40;;;1.95;;
69401;SDS011;56589;51.992;5.924;2023-04-19T11:02:48;2.33;;;1.88;;
69401;SDS011;56589;51.992;5.924;2023-04-19T11:05:14;3.15;;;1.75;;
69401;SDS011;56589;51.992;5.924;2023-04-19T11:07:40;3.58;;;1.67;;
69401;SDS011;56589;51.992;5.924;2023-04-19T11:10:07;5.47;;;1.73;;
69401;SDS011;56589;51.992;5.924;2023-04-19T11:12:34;4.15;;;1.55;;
69401;SDS011;56589;51.992;5.924;2023-04-19T11:15:00;2.63;;;1.48;;
69401;SDS011;56589;51.992;5.924;2023-04-19T11:17:29;4.15;;;1.65;;
69401;SDS011;56589;51.992;5.924;2023-04-19T11:19:57;2.53;;;1.90;;
69401;SDS011;56589;51.992;5.924;2023-04-19T11:22:25;5.15;;;1.63;;
69401;SDS011;56589;51.992;5.924;2023-04-19T11:24:55;4.97;;;1.80;;
69401;SDS011;56589;51.992;5.924;2023-04-19T11:27:21;3.35;;;1.40;;
69401;SDS011;56589;51.992;5.924;2023-04-19T11:29:47;1.77;;;1.40;;
69401;SDS011;56589;51.992;5.924;2023-04-19T11:32:12;4.32;;;1.58;;
69401;SDS011;56589;51.992;5.924;2023-04-19T11:34:41;4.75;;;1.60;;
69401;SDS011;56589;51.992;5.924;2023-04-19T11:37:07;3.45;;;1.45;;
69401;SDS011;56589;51.992;5.924;2023-04-19T11:39:43;2.60;;;1.45;;
69401;SDS011;56589;51.992;5.924;2023-04-19T11:42:15;3.33;;;1.55;;
69401;SDS011;56589;51.992;5.924;2023-04-19T11:44:47;3.60;;;1.70;;
69401;SDS011;56589;51.992;5.924;2023-04-19T11:47:14;3.55;;;1.60;;
69401;SDS011;56589;51.992;5.924;2023-04-19T11:49:42;7.53;;;1.90;;
69401;SDS011;56589;51.992;5.924;2023-04-19T11:52:08;3.47;;;1.83;;
69401;SDS011;56589;51.992;5.924;2023-04-19T11:54:34;4.43;;;1.63;;
69401;SDS011;56589;51.992;5.924;2023-04-19T11:57:01;3.95;;;1.70;;
69401;SDS011;56589;51.992;5.924;2023-04-19T11:59:28;2.17;;;1.60;;
69401;SDS011;56589;51.992;5.924;2023-04-19T12:02:03;8.30;;;1.85;;
69401;SDS011;56589;51.992;5.924;2023-04-19T12:04:33;3.80;;;1.50;;
69401;SDS011;56589;51.992;5.924;2023-04-19T12:07:03;3.17;;;1.50;;
69401;SDS011;56589;51.992;5.924;2023-04-19T12:09:31;2.80;;;1.80;;
69401;SDS011;56589;51.992;5.924;2023-04-19T12:11:59;3.72;;;1.67;;
69401;SDS011;56589;51.992;5.924;2023-04-19T12:14:24;7.50;;;1.80;;
69401;SDS011;56589;51.992;5.924;2023-04-19T12:17:04;9.30;;;1.90;;
69401;SDS011;56589;51.992;5.924;2023-04-19T12:19:33;3.33;;;1.67;;
69401;SDS011;56589;51.992;5.924;2023-04-19T12:22:09;3.90;;;1.50;;
69401;SDS011;56589;51.992;5.924;2023-04-19T12:24:37;4.07;;;1.70;;
69401;SDS011;56589;51.992;5.924;2023-04-19T12:27:04;3.03;;;1.83;;
69401;SDS011;56589;51.992;5.924;2023-04-19T12:29:30;2.45;;;1.75;;
69401;SDS011;56589;51.992;5.924;2023-04-19T12:31:56;4.15;;;2.10;;
69401;SDS011;56589;51.992;5.924;2023-04-19T12:34:22;2.78;;;1.98;;
69401;SDS011;56589;51.992;5.924;2023-04-19T12:36:48;3.20;;;2.15;;
69401;SDS011;56589;51.992;5.924;2023-04-19T12:39:16;3.85;;;1.77;;
69401;SDS011;56589;51.992;5.924;2023-04-19T12:41:42;5.10;;;2.33;;
69401;SDS011;56589;51.992;5.924;2023-04-19T12:44:08;4.93;;;2.20;;
69401;SDS011;56589;51.992;5.924;2023-04-19T12:46:33;5.35;;;2.30;;
69401;SDS011;56589;51.992;5.924;2023-04-19T12:49:01;5.72;;;2.10;;
69401;SDS011;56589;51.992;5.924;2023-04-19T12:51:27;3.03;;;2.72;;
69401;SDS011;56589;51.992;5.924;2023-04-19T12:53:54;4.30;;;2.08;;
69401;SDS011;56589;51.992;5.924;2023-04-19T12:56:23;4.00;;;2.20;;
69401;SDS011;56589;51.992;5.924;2023-04-19T12:58:48;2.83;;;2.00;;
69401;SDS011;56589;51.992;5.924;2023-04-19T13:01:14;4.88;;;1.90;;
69401;SDS011;56589;51.992;5.924;2023-04-19T13:03:40;2.95;;;1.90;;
69401;SDS011;56589;51.992;5.924;2023-04-19T13:06:06;7.50;;;1.90;;
69401;SDS011;56589;51.992;5.924;2023-04-19T13:08:32;5.28;;;2.10;;
69401;SDS011;56589;51.992;5.924;2023-04-19T13:10:57;6.90;;;2.17;;
69401;SDS011;56589;51.992;5.924;2023-04-19T13:13:26;4.15;;;2.10;;
69401;SDS011;56589;51.992;5.924;2023-04-19T13:15:52;5.05;;;1.75;;
69401;SDS011;56589;51.992;5.924;2023-04-19T13:18:18;4.82;;;2.53;;
69401;SDS011;56589;51.992;5.924;2023-04-19T13:20:44;5.22;;;1.75;;
69401;SDS011;56589;51.992;5.924;2023-04-19T13:23:11;2.70;;;1.80;;
69401;SDS011;56589;51.992;5.924;2023-04-19T13:25:37;2.35;;;1.80;;
69401;SDS011;56589;51.992;5.924;2023-04-19T13:28:03;3.42;;;1.80;;
69401;SDS011;56589;51.992;5.924;2023-04-19T13:30:31;4.60;;;1.63;;
69401;SDS011;56589;51.992;5.924;2023-04-19T13:32:57;7.88;;;1.88;;
69401;SDS011;56589;51.992;5.924;2023-04-19T13:35:23;4.82;;;2.00;;
69401;SDS011;56589;51.992;5.924;2023-04-19T13:37:49;3.10;;;1.60;;
69401;SDS011;56589;51.992;5.924;2023-04-19T13:40:15;2.83;;;1.80;;
69401;SDS011;56589;51.992;5.924;2023-04-19T13:42:41;4.68;;;1.80;;
69401;SDS011;56589;51.992;5.924;2023-04-19T13:45:07;3.53;;;2.05;;
69401;SDS011;56589;51.992;5.924;2023-04-19T13:47:36;5.25;;;1.98;;
69401;SDS011;56589;51.992;5.924;2023-04-19T13:50:02;2.85;;;2.05;;
69401;SDS011;56589;51.992;5.924;2023-04-19T13:52:29;3.03;;;2.10;;
69401;SDS011;56589;51.992;5.924;2023-04-19T13:54:54;3.20;;;2.17;;
69401;SDS011;56589;51.992;5.924;2023-04-19T13:57:20;4.50;;;2.00;;
69401;SDS011;56589;51.992;5.924;2023-04-19T13:59:46;4.72;;;1.80;;
69401;SDS011;56589;51.992;5.924;2023-04-19T14:02:12;3.38;;;2.15;;
69401;SDS011;56589;51.992;5.924;2023-04-19T14:04:40;2.78;;;1.85;;
69401;SDS011;56589;51.992;5.924;2023-04-19T14:07:06;4.93;;;1.77;;
69401;SDS011;56589;51.992;5.924;2023-04-19T14:09:31;2.45;;;1.80;;
69401;SDS011;56589;51.992;5.924;2023-04-19T14:11:57;2.33;;;1.70;;
69401;SDS011;56589;51.992;5.924;2023-04-19T14:14:23;6.57;;;2.25;;
69401;SDS011;56589;51.992;5.924;2023-04-19T14:16:49;3.05;;;2.00;;
69401;SDS011;56589;51.992;5.924;2023-04-19T14:19:14;3.97;;;1.90;;
69401;SDS011;56589;51.992;5.924;2023-04-19T14:21:43;5.50;;;1.90;;
69401;SDS011;56589;51.992;5.924;2023-04-19T14:24:08;5.30;;;1.73;;
69401;SDS011;56589;51.992;5.924;2023-04-19T14:26:34;4.53;;;2.05;;
69401;SDS011;56589;51.992;5.924;2023-04-19T14:29:00;2.53;;;1.35;;
69401;SDS011;56589;51.992;5.924;2023-04-19T14:31:26;2.63;;;1.88;;
69401;SDS011;56589;51.992;5.924;2023-04-19T14:33:51;3.38;;;2.10;;
69401;SDS011;56589;51.992;5.924;2023-04-19T14:36:17;3.72;;;2.22;;
69401;SDS011;56589;51.992;5.924;2023-04-19T14:38:46;3.53;;;2.05;;
69401;SDS011;56589;51.992;5.924;2023-04-19T14:41:11;4.10;;;2.00;;
69401;SDS011;56589;51.992;5.924;2023-04-19T14:43:37;3.78;;;2.28;;
69401;SDS011;56589;51.992;5.924;2023-04-19T14:46:03;3.75;;;2.08;;
69401;SDS011;56589;51.992;5.924;2023-04-19T14:48:29;4.25;;;1.75;;
69401;SDS011;56589;51.992;5.924;2023-04-19T14:50:55;4.65;;;1.80;;